Time;durP1;ratioP1;P1;durP2;ratioP2;P2;SDS_P1;SDS_P2;PMS_P1;PMS_P2;Temp;Humidity;BMP_temperature;BMP_pressure;BME280_temperature;BME280_humidity;BME280_pressure;Samples;Min_cycle;Max_cycle;Signal;HPM_P1;HPM_P2
2020/10/21 00:01:36;;;;;;;1.8;1.1;;;;;;;8.22;71.86426;935.5598;;;;
2020/10/21 00:04:01;;;;;;;1.8;1.2;;;;;;;8.23;71.79785;935.5709;;;;
2020/10/21 00:06:29;;;;;;;2.5;1.2;;;;;;;8.27;72.34863;935.5461;;;;
2020/10/21 00:08:54;;;;;;;1.8;1;;;;;;;8.28;70.89648;935.5447;;;;
2020/10/21 00:11:20;;;;;;;3.4;1.2;;;;;;;8.18;73.02734;935.4867;;;;
2020/10/21 00:13:46;;;;;;;2.5;1.4;;;;;;;8.06;74.15234;935.4231;;;;
2020/10/21 00:16:12;;;;;;;2.2;1.4;;;;;;;7.99;73.58398;935.3245;;;;
2020/10/21 00:18:37;;;;;;;2.1;1.3;;;;;;;7.92;74.67285;935.4011;;;;
2020/10/21 00:21:05;;;;;;;3.8;1.6;;;;;;;7.84;75.7832;935.4459;;;;
2020/10/21 00:23:30;;;;;;;2.8;1.7;;;;;;;7.76;75.88281;935.423;;;;
2020/10/21 00:25:56;;;;;;;2.3;1.5;;;;;;;7.69;76.29102;935.4117;;;;
2020/10/21 00:28:21;;;;;;;2.2;1.5;;;;;;;7.71;76.43066;935.4231;;;;
2020/10/21 00:30:48;;;;;;;3;1.6;;;;;;;7.7;76.33789;935.4039;;;;
2020/10/21 00:33:15;;;;;;;3.5;1.3;;;;;;;7.76;76.0752;935.4103;;;;
2020/10/21 00:35:45;;;;;;;8.3;2.1;;;;;;;7.7;76.15527;935.3444;;;;
2020/10/21 00:38:13;;;;;;;4.6;1.5;;;;;;;7.73;75.40137;935.3695;;;;
2020/10/21 00:40:38;;;;;;;1.4;1.2;;;;;;;7.76;76.09668;935.4048;;;;
2020/10/21 00:43:05;;;;;;;2.4;1.4;;;;;;;7.77;75.35059;935.3415;;;;
2020/10/21 00:45:30;;;;;;;1.7;1.2;;;;;;;7.77;75.12402;935.3756;;;;
2020/10/21 00:47:58;;;;;;;1.2;1;;;;;;;7.99;70.55371;935.2784;;;;
2020/10/21 00:50:23;;;;;;;1.9;1.2;;;;;;;8.38;70.69727;935.275;;;;
2020/10/21 00:52:48;;;;;;;2;1.1;;;;;;;8.47;70.9502;935.324;;;;
2020/10/21 00:55:20;;;;;;;1.9;0.7;;;;;;;8.63;70.71387;935.2175;;;;
2020/10/21 00:57:50;;;;;;;1;0.8;;;;;;;8.49;71.71484;935.1624;;;;
2020/10/21 01:00:25;;;;;;;1.2;0.9;;;;;;;8.53;68.33496;935.1319;;;;
2020/10/21 01:02:51;;;;;;;2.4;0.6;;;;;;;9.02;64.9082;935.027;;;;
2020/10/21 01:05:21;;;;;;;2.6;0.8;;;;;;;9.38;62.53711;935.0956;;;;
2020/10/21 01:07:48;;;;;;;0.8;0.7;;;;;;;9.6;58.26367;934.9969;;;;
2020/10/21 01:10:13;;;;;;;0.8;0.6;;;;;;;9.87;60.45508;934.9596;;;;
2020/10/21 01:12:40;;;;;;;1.6;0.9;;;;;;;10.06;61.24414;934.9355;;;;
2020/10/21 01:15:05;;;;;;;0.8;0.7;;;;;;;9.82;63.61621;934.9656;;;;
2020/10/21 01:17:30;;;;;;;0.8;0.6;;;;;;;9.63;65.1377;935.0442;;;;
2020/10/21 01:19:58;;;;;;;1.5;1.2;;;;;;;9.52;65.89453;934.9731;;;;
2020/10/21 01:22:23;;;;;;;1.8;0.7;;;;;;;9.41;65.25195;934.8504;;;;
2020/10/21 01:24:49;;;;;;;1.3;0.8;;;;;;;9.5;64.78809;934.861;;;;
2020/10/21 01:27:15;;;;;;;3.4;1.2;;;;;;;9.57;62.24609;934.7614;;;;
2020/10/21 01:29:42;;;;;;;2;0.9;;;;;;;9.82;61.66699;934.6133;;;;
2020/10/21 01:32:09;;;;;;;1.3;0.8;;;;;;;9.98;61.73438;934.6699;;;;
2020/10/21 01:34:34;;;;;;;1.8;1;;;;;;;10.02;62.9502;934.649;;;;
2020/10/21 01:37:00;;;;;;;2.3;1.2;;;;;;;9.81;64.91406;934.7119;;;;
2020/10/21 01:39:25;;;;;;;1.1;1;;;;;;;9.95;59.33594;934.5369;;;;
2020/10/21 01:41:52;;;;;;;1.2;0.5;;;;;;;10.18;58.375;934.4676;;;;
2020/10/21 01:44:17;;;;;;;0.9;0.7;;;;;;;10.39;57.65039;934.4771;;;;
2020/10/21 01:46:44;;;;;;;0.8;0.6;;;;;;;10.37;57.5;934.4626;;;;
2020/10/21 01:49:10;;;;;;;1.2;0.9;;;;;;;10.37;59.13184;934.3521;;;;
2020/10/21 01:51:37;;;;;;;0.7;0.6;;;;;;;10.38;59.20215;934.399;;;;
2020/10/21 01:54:03;;;;;;;1.2;0.7;;;;;;;10.39;60.16016;934.3926;;;;
2020/10/21 01:56:29;;;;;;;0.6;0.4;;;;;;;10.46;59.25879;934.3702;;;;
2020/10/21 01:58:54;;;;;;;1.2;0.9;;;;;;;10.44;59.56348;934.3494;;;;
2020/10/21 02:01:24;;;;;;;0.6;0.5;;;;;;;10.5;59.25293;934.2159;;;;
2020/10/21 02:03:54;;;;;;;1;0.7;;;;;;;10.38;60.69727;934.2581;;;;
2020/10/21 02:06:19;;;;;;;0.8;0.8;;;;;;;10.36;62.1084;934.1848;;;;
2020/10/21 02:08:44;;;;;;;1.2;0.7;;;;;;;10.27;62.69043;934.1853;;;;
2020/10/21 02:11:09;;;;;;;0.8;0.6;;;;;;;10.14;63.40039;934.1595;;;;
2020/10/21 02:13:37;;;;;;;2.2;1;;;;;;;9.99;62.13574;934.1833;;;;
2020/10/21 02:16:03;;;;;;;1.2;0.8;;;;;;;10.01;59.99609;934.1169;;;;
2020/10/21 02:18:33;;;;;;;0.8;0.6;;;;;;;10.14;58.97461;934.1102;;;;
2020/10/21 02:20:57;;;;;;;0.9;0.6;;;;;;;10.35;58.50195;934.0686;;;;
2020/10/21 02:23:27;;;;;;;0.9;0.6;;;;;;;10.4;60.84863;933.9892;;;;
2020/10/21 02:25:55;;;;;;;1.6;0.6;;;;;;;10.49;60.87305;933.9626;;;;
2020/10/21 02:28:20;;;;;;;1.2;0.8;;;;;;;10.46;61.11914;933.9738;;;;
2020/10/21 02:30:57;;;;;;;1.4;0.8;;;;;;;10.51;59.95117;933.9135;;;;
2020/10/21 02:33:23;;;;;;;1.8;0.9;;;;;;;10.54;59.05273;933.8561;;;;
2020/10/21 02:35:49;;;;;;;1.2;0.7;;;;;;;10.44;57.48535;933.8033;;;;
2020/10/21 02:38:16;;;;;;;1.1;0.8;;;;;;;10.58;58.55664;933.8133;;;;
2020/10/21 02:40:41;;;;;;;2.1;1.4;;;;;;;10.6;61.25391;933.7855;;;;
2020/10/21 02:43:08;;;;;;;0.9;0.7;;;;;;;10.53;62.47656;933.6539;;;;
2020/10/21 02:45:37;;;;;;;5.6;3.1;;;;;;;10.61;62.05469;933.6138;;;;
2020/10/21 02:48:05;;;;;;;5.6;3.3;;;;;;;10.54;62.56934;933.6722;;;;
2020/10/21 02:50:30;;;;;;;3.7;2;;;;;;;10.58;61.63965;933.7256;;;;
2020/10/21 02:52:56;;;;;;;1.4;1.2;;;;;;;10.76;60.77344;933.7206;;;;
2020/10/21 02:55:21;;;;;;;0.9;0.8;;;;;;;10.57;63.18945;933.7296;;;;
2020/10/21 02:57:48;;;;;;;2.6;0.9;;;;;;;10.59;58.94434;933.6683;;;;
2020/10/21 03:00:21;;;;;;;2.5;0.9;;;;;;;10.8;59.42969;933.6403;;;;
2020/10/21 03:02:46;;;;;;;1.9;0.9;;;;;;;10.72;60.0127;933.723;;;;
2020/10/21 03:05:17;;;;;;;2.6;0.9;;;;;;;10.91;59.01172;933.6509;;;;
2020/10/21 03:07:44;;;;;;;4.1;0.8;;;;;;;10.96;56.71094;933.6924;;;;
2020/10/21 03:10:09;;;;;;;1.1;0.7;;;;;;;11.39;52.37207;933.6067;;;;
2020/10/21 03:12:35;;;;;;;0.5;0.5;;;;;;;11.5;54.03418;933.6372;;;;
2020/10/21 03:15:00;;;;;;;2.7;0.9;;;;;;;11.57;52.12012;933.6785;;;;
2020/10/21 03:17:25;;;;;;;1.5;1;;;;;;;11.58;53.74609;933.6219;;;;
2020/10/21 03:19:53;;;;;;;2.5;0.8;;;;;;;12.3;47.26563;933.6304;;;;
2020/10/21 03:22:18;;;;;;;1.1;0.8;;;;;;;12.57;47.04297;933.6573;;;;
2020/10/21 03:24:45;;;;;;;1.6;0.8;;;;;;;12.55;51.61816;933.6294;;;;
2020/10/21 03:27:10;;;;;;;1.9;0.9;;;;;;;12.34;51.37598;933.663;;;;
2020/10/21 03:29:37;;;;;;;1.7;0.8;;;;;;;12.11;53.41113;933.686;;;;
2020/10/21 03:32:04;;;;;;;1.3;0.9;;;;;;;12.04;50.61816;933.8172;;;;
2020/10/21 03:34:29;;;;;;;2.2;0.9;;;;;;;12.25;53.31445;933.7615;;;;
2020/10/21 03:36:55;;;;;;;0.8;0.7;;;;;;;12.05;53.3916;933.6887;;;;
2020/10/21 03:39:24;;;;;;;1.3;0.8;;;;;;;12.17;53.26953;933.7073;;;;
2020/10/21 03:41:51;;;;;;;1.5;0.8;;;;;;;12.1;54.90039;933.793;;;;
2020/10/21 03:44:17;;;;;;;1.9;0.9;;;;;;;12.08;54.56543;933.7388;;;;
2020/10/21 03:46:43;;;;;;;1;0.9;;;;;;;11.91;57.17676;933.7479;;;;
2020/10/21 03:49:08;;;;;;;1.3;0.9;;;;;;;11.76;56.94043;933.7764;;;;
2020/10/21 03:51:33;;;;;;;1.3;0.8;;;;;;;11.51;58.53223;933.8596;;;;
2020/10/21 03:54:00;;;;;;;1.1;0.8;;;;;;;11.4;58.72363;933.9056;;;;
2020/10/21 03:56:26;;;;;;;1.9;1;;;;;;;11.51;58.59961;933.9409;;;;
2020/10/21 03:58:55;;;;;;;2.4;1;;;;;;;11.41;59.24121;933.8915;;;;
2020/10/21 04:02:32;;;;;;;2.4;1.1;;;;;;;11.52;59.54102;933.8667;;;;
2020/10/21 04:04:58;;;;;;;3;1;;;;;;;11.37;61.07617;933.8571;;;;
2020/10/21 04:07:28;;;;;;;1.7;0.9;;;;;;;11.51;60.39648;933.9026;;;;
2020/10/21 04:09:53;;;;;;;1.8;1;;;;;;;11.34;61.50781;933.873;;;;
2020/10/21 04:12:19;;;;;;;2;0.8;;;;;;;11.36;61.14258;933.7901;;;;
2020/10/21 04:14:45;;;;;;;1.1;0.8;;;;;;;11.34;55.43359;933.7407;;;;
2020/10/21 04:17:13;;;;;;;2.5;1.6;;;;;;;11.47;60.01367;933.8278;;;;
2020/10/21 04:19:38;;;;;;;1.5;1.1;;;;;;;11.49;59.83594;933.8158;;;;
2020/10/21 04:22:03;;;;;;;1.4;0.8;;;;;;;11.35;57.89258;933.7032;;;;
2020/10/21 04:24:28;;;;;;;1.8;0.8;;;;;;;11.62;53.23633;933.8006;;;;
2020/10/21 04:26:53;;;;;;;2.6;1.2;;;;;;;11.91;52.19434;933.8269;;;;
2020/10/21 04:29:18;;;;;;;2.5;0.8;;;;;;;12.21;49.05664;933.834;;;;
2020/10/21 04:31:47;;;;;;;1.9;1.3;;;;;;;12.49;48.88184;933.6816;;;;
2020/10/21 04:34:12;;;;;;;1.6;1;;;;;;;12.65;48.42871;933.8088;;;;
2020/10/21 04:36:37;;;;;;;1.7;1;;;;;;;12.79;47.26367;933.8367;;;;
2020/10/21 04:39:02;;;;;;;1.7;0.8;;;;;;;12.81;49.26172;933.8758;;;;
2020/10/21 04:41:30;;;;;;;1.2;0.8;;;;;;;12.82;50.49121;933.9575;;;;
2020/10/21 04:43:55;;;;;;;1.4;0.9;;;;;;;12.81;51.21289;933.9389;;;;
2020/10/21 04:46:20;;;;;;;2;1.4;;;;;;;12.69;51.38281;933.8438;;;;
2020/10/21 04:48:47;;;;;;;1.7;1.3;;;;;;;12.72;51.29492;933.8995;;;;
2020/10/21 04:51:14;;;;;;;2.5;1.1;;;;;;;12.78;52.27734;933.967;;;;
2020/10/21 04:53:39;;;;;;;2.3;1.3;;;;;;;12.56;54.03906;933.9512;;;;
2020/10/21 04:56:04;;;;;;;2.7;1;;;;;;;12.16;56.32813;934.0712;;;;
2020/10/21 04:58:31;;;;;;;4.2;1.1;;;;;;;11.98;57.59961;934.0684;;;;
2020/10/21 05:01:01;;;;;;;2.3;1.4;;;;;;;12.2;54.00684;933.9938;;;;
2020/10/21 05:03:26;;;;;;;5.5;1.3;;;;;;;12.19;54.08496;933.938;;;;
2020/10/21 05:05:52;;;;;;;5.1;1.6;;;;;;;12.31;55.43066;933.9449;;;;
2020/10/21 05:08:17;;;;;;;1.8;1.1;;;;;;;12.18;54.77246;934.0593;;;;
2020/10/21 05:10:44;;;;;;;2.4;1.3;;;;;;;12.14;52.73828;933.9317;;;;
2020/10/21 05:13:10;;;;;;;1.7;0.7;;;;;;;12.61;48.42578;933.9441;;;;
2020/10/21 05:15:47;;;;;;;1.3;0.7;;;;;;;12.7;49.67383;933.9203;;;;
2020/10/21 05:18:12;;;;;;;1.1;0.8;;;;;;;12.6;50.44336;933.8375;;;;
2020/10/21 05:20:37;;;;;;;2.2;1.1;;;;;;;12.55;52.04297;933.8123;;;;
2020/10/21 05:23:02;;;;;;;5.1;1.3;;;;;;;12.48;50.66992;933.835;;;;
2020/10/21 05:25:27;;;;;;;1.1;0.7;;;;;;;12.4;52.35645;933.8965;;;;
2020/10/21 05:27:52;;;;;;;1.5;0.7;;;;;;;12.47;49.83105;933.867;;;;
2020/10/21 05:30:23;;;;;;;1.2;0.7;;;;;;;12.43;53.4043;933.9655;;;;
2020/10/21 05:32:48;;;;;;;3;1.3;;;;;;;12.49;54.25;933.9124;;;;
2020/10/21 05:35:13;;;;;;;1.8;1.2;;;;;;;12.46;54.83105;934.0667;;;;
2020/10/21 05:37:38;;;;;;;1.3;1.1;;;;;;;12.19;56.13672;934.1414;;;;
2020/10/21 05:40:03;;;;;;;1.5;1.2;;;;;;;12;57.21289;934.0787;;;;
2020/10/21 05:42:29;;;;;;;2.8;1.1;;;;;;;11.81;58.79004;934.0478;;;;
2020/10/21 05:44:54;;;;;;;4;1.3;;;;;;;11.66;60.05176;934.0997;;;;
2020/10/21 05:47:22;;;;;;;1.8;1.4;;;;;;;11.46;62.28906;934.0789;;;;
2020/10/21 05:49:50;;;;;;;5.8;1.3;;;;;;;11.26;62.65137;934.0547;;;;
2020/10/21 05:52:15;;;;;;;2.8;1.4;;;;;;;11.22;63.13672;934.0963;;;;
2020/10/21 05:54:40;;;;;;;12.1;1.5;;;;;;;11.21;64.12988;934.1813;;;;
2020/10/21 05:57:06;;;;;;;3.3;2.3;;;;;;;11.21;63.77539;934.2697;;;;
2020/10/21 05:59:31;;;;;;;4;1.3;;;;;;;11.23;63.56055;934.1919;;;;
2020/10/21 06:01:56;;;;;;;3.6;1.6;;;;;;;11.2;64.17285;934.2784;;;;
2020/10/21 06:04:21;;;;;;;5;1.9;;;;;;;11.23;63.82422;934.2628;;;;
2020/10/21 06:06:46;;;;;;;3.8;2;;;;;;;11.29;62.65527;934.3712;;;;
2020/10/21 06:09:13;;;;;;;2.9;1.5;;;;;;;11.34;62.05566;934.3823;;;;
2020/10/21 06:11:38;;;;;;;2;1.4;;;;;;;11.46;60.45996;934.3954;;;;
2020/10/21 06:14:05;;;;;;;5.6;2;;;;;;;11.52;62.4375;934.2917;;;;
2020/10/21 06:16:31;;;;;;;6.9;2.2;;;;;;;11.67;62.01172;934.3636;;;;
2020/10/21 06:18:56;;;;;;;2.7;1.7;;;;;;;11.58;63.24609;934.2445;;;;
2020/10/21 06:21:21;;;;;;;3;1.7;;;;;;;11.58;63.58984;934.3187;;;;
2020/10/21 06:23:46;;;;;;;4.4;1.9;;;;;;;11.45;63.77539;934.3197;;;;
2020/10/21 06:26:13;;;;;;;4.7;1.3;;;;;;;11.38;59.91016;934.3027;;;;
2020/10/21 06:28:39;;;;;;;5.8;1.4;;;;;;;11.55;63.24219;934.2997;;;;
2020/10/21 06:31:04;;;;;;;3.3;1.2;;;;;;;11.6;62.72266;934.3459;;;;
2020/10/21 06:33:30;;;;;;;4.6;1.7;;;;;;;11.5;64.05859;934.373;;;;
2020/10/21 06:35:55;;;;;;;2.2;1.3;;;;;;;11.59;63.89941;934.4017;;;;
2020/10/21 06:38:22;;;;;;;3.5;2;;;;;;;11.68;63.05469;934.3803;;;;
2020/10/21 06:40:52;;;;;;;3.5;1.3;;;;;;;11.87;62.7627;934.4412;;;;
2020/10/21 06:43:17;;;;;;;2.6;1.6;;;;;;;11.87;63.41406;934.4708;;;;
2020/10/21 06:45:58;;;;;;;8.6;1.7;;;;;;;11.87;64.22754;934.3463;;;;
2020/10/21 06:48:14;;;;;;;9.5;1.5;;;;;;;11.76;65.02441;934.4289;;;;
2020/10/21 06:50:39;;;;;;;2.4;1.5;;;;;;;11.69;64.08789;934.3939;;;;
2020/10/21 06:53:04;;;;;;;2.2;1.5;;;;;;;11.84;63.85547;934.4222;;;;
2020/10/21 06:55:30;;;;;;;3.2;1.3;;;;;;;11.94;61.59082;934.3917;;;;
2020/10/21 06:57:55;;;;;;;1.5;0.8;;;;;;;12.21;60.79395;934.4211;;;;
2020/10/21 07:00:30;;;;;;;2.1;1.2;;;;;;;12.44;61.18262;934.308;;;;
2020/10/21 07:02:55;;;;;;;2.3;1.3;;;;;;;12.5;62.02734;934.3747;;;;
2020/10/21 07:05:20;;;;;;;6.4;1.1;;;;;;;12.65;60.38379;934.3918;;;;
2020/10/21 07:07:45;;;;;;;3.5;1;;;;;;;12.94;58.20801;934.3819;;;;
2020/10/21 07:10:10;;;;;;;2.5;1;;;;;;;13.28;57.70313;934.3885;;;;
2020/10/21 07:12:36;;;;;;;3;1.2;;;;;;;13.55;57.29199;934.3258;;;;
2020/10/21 07:15:01;;;;;;;2.6;1.3;;;;;;;13.73;57.78613;934.3181;;;;
2020/10/21 07:17:26;;;;;;;11;1.8;;;;;;;13.85;57.80176;934.3373;;;;
2020/10/21 07:19:51;;;;;;;4.4;1.3;;;;;;;13.98;54.62012;934.2704;;;;
2020/10/21 07:22:16;;;;;;;2;1.1;;;;;;;14.31;54.51172;934.2594;;;;
2020/10/21 07:24:42;;;;;;;2.9;1.2;;;;;;;14.4;55.41016;934.2832;;;;
2020/10/21 07:27:08;;;;;;;1.3;1.2;;;;;;;14.56;57.68848;934.322;;;;
2020/10/21 07:29:32;;;;;;;3.1;1.3;;;;;;;14.61;57.03711;934.2428;;;;
2020/10/21 07:32:00;;;;;;;1.9;1.2;;;;;;;14.68;58.71973;934.3024;;;;
2020/10/21 07:34:25;;;;;;;2.5;1.2;;;;;;;14.75;57.73633;934.2775;;;;
2020/10/21 07:36:50;;;;;;;1.8;0.9;;;;;;;14.81;54.2168;934.251;;;;
2020/10/21 07:39:17;;;;;;;3.7;1.3;;;;;;;14.84;55.82324;934.1987;;;;
2020/10/21 07:41:42;;;;;;;2.4;1.4;;;;;;;14.83;57.49316;934.2502;;;;
2020/10/21 07:44:07;;;;;;;8.2;1.9;;;;;;;14.81;56.82227;934.1877;;;;
2020/10/21 07:46:32;;;;;;;4.7;1.9;;;;;;;14.73;60.15527;934.18;;;;
2020/10/21 07:48:57;;;;;;;3.3;1.9;;;;;;;14.7;59.11426;934.2413;;;;
2020/10/21 07:51:22;;;;;;;1.7;0.9;;;;;;;14.74;55.47559;934.2831;;;;
2020/10/21 07:53:48;;;;;;;6.6;1.4;;;;;;;14.91;55.49805;934.2932;;;;
2020/10/21 07:56:13;;;;;;;7.8;1.7;;;;;;;14.92;59.57031;934.2971;;;;
2020/10/21 07:58:39;;;;;;;7.1;2.1;;;;;;;14.81;59.46289;934.3535;;;;
2020/10/21 08:01:08;;;;;;;4;1.2;;;;;;;14.78;49.96875;934.2859;;;;
2020/10/21 08:03:29;;;;;;;5.2;1.5;;;;;;;15.05;52.63086;934.4006;;;;
2020/10/21 08:05:55;;;;;;;3.6;1.9;;;;;;;15.23;54.65918;934.3775;;;;
2020/10/21 08:08:20;;;;;;;2.5;1.6;;;;;;;15.28;56.7334;934.3775;;;;
2020/10/21 08:10:45;;;;;;;4.9;2.1;;;;;;;15.31;57.13086;934.3498;;;;
2020/10/21 08:13:12;;;;;;;2.7;1.5;;;;;;;15.39;57.46387;934.2989;;;;
2020/10/21 08:15:40;;;;;;;4.2;1.5;;;;;;;15.28;56.06445;934.2892;;;;
2020/10/21 08:18:06;;;;;;;2.3;1.3;;;;;;;15.45;56.1543;934.3127;;;;
2020/10/21 08:20:31;;;;;;;4.4;1.2;;;;;;;15.49;56.81836;934.3914;;;;
2020/10/21 08:22:58;;;;;;;4.8;1.3;;;;;;;15.65;56.73535;934.3324;;;;
2020/10/21 08:25:23;;;;;;;4.9;1.3;;;;;;;15.72;54.0166;934.3627;;;;
2020/10/21 08:27:48;;;;;;;1.8;1.3;;;;;;;15.83;54.54004;934.3378;;;;
2020/10/21 08:30:22;;;;;;;5.6;1.1;;;;;;;15.98;52.96289;934.4444;;;;
2020/10/21 08:32:50;;;;;;;7.5;1.7;;;;;;;16.14;49.30371;934.4099;;;;
2020/10/21 08:35:16;;;;;;;1.5;1;;;;;;;16.22;50.68848;934.3427;;;;
2020/10/21 08:37:43;;;;;;;1.3;1;;;;;;;16.49;51.04492;934.3635;;;;
2020/10/21 08:40:09;;;;;;;1.2;0.8;;;;;;;16.68;51.82031;934.3322;;;;
2020/10/21 08:42:35;;;;;;;2.9;0.9;;;;;;;16.82;50.5498;934.3407;;;;
2020/10/21 08:45:00;;;;;;;7.1;1;;;;;;;16.97;49.43262;934.3378;;;;
2020/10/21 08:47:26;;;;;;;1.6;0.5;;;;;;;17.09;44.94922;934.3748;;;;
2020/10/21 08:49:52;;;;;;;1.1;0.6;;;;;;;17.39;45.34961;934.2977;;;;
2020/10/21 12:18:11;;;;;;;1;0.5;;;;;;;26.11;24.98242;934.358;;;;
2020/10/21 12:20:41;;;;;;;0.4;0.4;;;;;;;28.13;23.69238;934.3912;;;;
2020/10/21 12:23:09;;;;;;;0.9;0.6;;;;;;;30.28;21.40625;934.448;;;;
2020/10/21 12:25:36;;;;;;;1.3;0.7;;;;;;;31.02;20.62793;934.4465;;;;
2020/10/21 12:27:59;;;;;;;1.4;0.9;;;;;;;31.97;19.65234;934.4361;;;;
2020/10/21 12:30:30;;;;;;;0.8;0.5;;;;;;;32.6;19.5957;934.52;;;;
2020/10/21 12:32:57;;;;;;;4.4;0.9;;;;;;;33.06;19.20703;934.5143;;;;
2020/10/21 12:35:22;;;;;;;2;0.8;;;;;;;34;18.0791;934.4589;;;;
2020/10/21 12:37:47;;;;;;;1;0.5;;;;;;;35.3;17.49121;934.4166;;;;
2020/10/21 12:40:15;;;;;;;1.5;0.5;;;;;;;35.9;16.19727;934.3975;;;;
2020/10/21 12:42:40;;;;;;;0.6;0.4;;;;;;;36.39;15.20996;934.3918;;;;
2020/10/21 12:45:05;;;;;;;0.4;0.4;;;;;;;37.06;15.55957;934.3834;;;;
2020/10/21 12:47:31;;;;;;;0.5;0.3;;;;;;;37.44;14.82031;934.3951;;;;
2020/10/21 12:49:56;;;;;;;0.7;0.4;;;;;;;37.89;14.58008;934.3572;;;;
2020/10/21 12:52:21;;;;;;;0.6;0.4;;;;;;;38.23;13.87305;934.3808;;;;
2020/10/21 12:54:48;;;;;;;0.8;0.6;;;;;;;38.27;14.02051;934.3719;;;;
2020/10/21 12:57:14;;;;;;;0.7;0.4;;;;;;;37.89;14.19141;934.3317;;;;
2020/10/21 12:59:40;;;;;;;0.7;0.4;;;;;;;37.41;14.45508;934.3739;;;;
2020/10/21 13:02:08;;;;;;;1;0.4;;;;;;;38.17;14.22461;934.3803;;;;
2020/10/21 13:04:33;;;;;;;0.9;0.5;;;;;;;37.54;14.49512;934.3783;;;;
2020/10/21 13:06:58;;;;;;;0.5;0.4;;;;;;;37.11;14.74902;934.4127;;;;
2020/10/21 13:09:24;;;;;;;0.3;0.3;;;;;;;37.01;15.25488;934.4377;;;;
2020/10/21 13:11:49;;;;;;;0.4;0.3;;;;;;;36.5;14.6084;934.3684;;;;
2020/10/21 13:14:14;;;;;;;2.7;0.6;;;;;;;37.05;14.96484;934.3812;;;;
2020/10/21 13:16:41;;;;;;;0.7;0.4;;;;;;;37.23;15.16504;934.3776;;;;
2020/10/21 13:19:06;;;;;;;2.7;0.8;;;;;;;37.78;14.78223;934.4008;;;;
2020/10/21 13:21:35;;;;;;;2.1;0.7;;;;;;;37.88;14.46973;934.3983;;;;
2020/10/21 13:24:00;;;;;;;0.5;0.4;;;;;;;36.63;14.90234;934.373;;;;
2020/10/21 13:26:25;;;;;;;0.2;0.2;;;;;;;37.04;14.7832;934.3947;;;;
2020/10/21 13:28:50;;;;;;;0.5;0.3;;;;;;;37.29;14.56055;934.2789;;;;
2020/10/21 13:31:15;;;;;;;1.3;0.5;;;;;;;35.85;15.28809;934.2902;;;;
2020/10/21 13:33:44;;;;;;;0.5;0.4;;;;;;;36.55;14.86426;934.3738;;;;
2020/10/21 13:36:12;;;;;;;0.5;0.3;;;;;;;36.74;14.2041;934.3787;;;;
2020/10/21 13:38:37;;;;;;;0.4;0.2;;;;;;;37.21;14.38867;934.3243;;;;
2020/10/21 13:41:03;;;;;;;1;0.4;;;;;;;37.55;14.20508;934.3346;;;;
2020/10/21 13:43:28;;;;;;;2.1;0.8;;;;;;;38.13;14.19824;934.3524;;;;
2020/10/21 13:45:58;;;;;;;2.1;0.5;;;;;;;38.67;13.78906;934.3537;;;;
2020/10/21 13:48:23;;;;;;;1;0.3;;;;;;;39.1;13.20605;934.3732;;;;
2020/10/21 13:50:48;;;;;;;1;0.3;;;;;;;39.56;13.20703;934.3014;;;;
2020/10/21 13:53:15;;;;;;;2.7;0.6;;;;;;;39.74;12.80957;934.3007;;;;
2020/10/21 13:55:41;;;;;;;0.7;0.4;;;;;;;39.93;12.7666;934.3499;;;;
2020/10/21 13:58:07;;;;;;;0.7;0.5;;;;;;;38.59;13.47168;934.3458;;;;
2020/10/21 14:00:39;;;;;;;0.8;0.4;;;;;;;38.01;14.10938;934.3041;;;;
2020/10/21 14:03:04;;;;;;;1.2;0.4;;;;;;;37.19;14.47266;934.2599;;;;
2020/10/21 14:05:29;;;;;;;1.2;0.5;;;;;;;36.7;15.4375;934.2489;;;;
2020/10/21 14:07:55;;;;;;;0.8;0.5;;;;;;;35.92;15.96777;934.3016;;;;
2020/10/21 14:10:20;;;;;;;1.9;0.8;;;;;;;35.06;16.36035;934.2972;;;;
2020/10/21 14:12:48;;;;;;;1.1;0.5;;;;;;;34.42;17.70996;934.2916;;;;
2020/10/21 14:15:14;;;;;;;2.6;0.8;;;;;;;33.87;18.74805;934.3142;;;;
2020/10/21 14:17:39;;;;;;;1.8;1;;;;;;;33.82;19.07129;934.2654;;;;
2020/10/21 14:20:16;;;;;;;2;0.9;;;;;;;33.17;19.62012;934.3161;;;;
2020/10/21 14:22:41;;;;;;;3.6;1.1;;;;;;;31.7;22.19238;934.2609;;;;
2020/10/21 14:25:06;;;;;;;0.4;0.3;;;;;;;30.72;23.30371;934.2827;;;;
2020/10/21 14:27:31;;;;;;;0.9;0.5;;;;;;;30.96;23.07617;934.2007;;;;
2020/10/21 14:29:59;;;;;;;1.6;0.3;;;;;;;32.13;21.23047;934.21;;;;
2020/10/21 14:32:24;;;;;;;2;0.7;;;;;;;33.43;21.51953;934.2168;;;;
2020/10/21 14:34:50;;;;;;;1.6;1;;;;;;;33.97;21.25586;934.2838;;;;
2020/10/21 14:37:15;;;;;;;1;0.7;;;;;;;34.09;19.98535;934.2137;;;;
2020/10/21 14:39:40;;;;;;;0.7;0.4;;;;;;;33.88;20.39746;934.1613;;;;
2020/10/21 14:42:05;;;;;;;2.4;0.8;;;;;;;33.57;21.61035;934.1744;;;;
2020/10/21 14:44:31;;;;;;;1.6;0.7;;;;;;;32.44;22.37207;934.1378;;;;
2020/10/21 14:46:56;;;;;;;1.2;0.5;;;;;;;30.35;23.43945;934.0894;;;;
2020/10/21 14:49:21;;;;;;;2;1;;;;;;;29.29;25.42188;934.183;;;;
2020/10/21 14:51:48;;;;;;;2.4;1.4;;;;;;;28.32;26.99512;934.1361;;;;
2020/10/21 14:54:13;;;;;;;2.4;0.9;;;;;;;26.58;28.57227;934.1586;;;;
2020/10/21 14:56:39;;;;;;;1.4;0.8;;;;;;;26.54;29.50586;934.1369;;;;
2020/10/21 14:59:05;;;;;;;1.3;0.8;;;;;;;26.05;32.37109;934.2248;;;;
2020/10/21 15:01:30;;;;;;;1.7;0.9;;;;;;;25.52;34.6123;934.2211;;;;
2020/10/21 15:03:55;;;;;;;3.4;1.1;;;;;;;25.17;34.53809;934.2532;;;;
2020/10/21 15:06:20;;;;;;;2.3;1.2;;;;;;;24.38;33.94727;934.2672;;;;
2020/10/21 15:08:45;;;;;;;0.8;0.7;;;;;;;23.48;33.83203;934.2263;;;;
2020/10/21 15:11:10;;;;;;;10.2;0.6;;;;;;;23.01;35.85156;934.2503;;;;
2020/10/21 15:13:37;;;;;;;2;0.8;;;;;;;22.98;37.34082;934.2744;;;;
2020/10/21 15:16:02;;;;;;;5.6;3;;;;;;;22.83;38.7959;934.1691;;;;
2020/10/21 15:18:27;;;;;;;6;2.5;;;;;;;22.62;40.30273;934.2424;;;;
2020/10/21 15:20:54;;;;;;;4.3;2.3;;;;;;;22.33;42.05957;934.235;;;;
2020/10/21 15:23:20;;;;;;;2.8;1.1;;;;;;;21.91;41.96094;934.1495;;;;
2020/10/21 15:25:49;;;;;;;5.3;0.9;;;;;;;21.24;42.74121;934.2054;;;;
2020/10/21 15:28:16;;;;;;;1.7;0.9;;;;;;;21.02;44.50977;934.2902;;;;
2020/10/21 15:30:41;;;;;;;8.9;1.2;;;;;;;20.87;45.60449;934.3758;;;;
2020/10/21 15:33:06;;;;;;;2.8;0.8;;;;;;;20.54;45.53613;934.3052;;;;
2020/10/21 15:35:32;;;;;;;1.7;1;;;;;;;20.52;43.79297;934.2236;;;;
2020/10/21 15:37:57;;;;;;;1.6;0.9;;;;;;;20.23;44.91992;934.2208;;;;
2020/10/21 15:40:24;;;;;;;1.7;0.9;;;;;;;20.15;46.74414;934.2062;;;;
2020/10/21 15:42:49;;;;;;;2;0.8;;;;;;;19.99;47.31055;934.2558;;;;
2020/10/21 15:45:23;;;;;;;1.8;0.8;;;;;;;19.82;45.7998;934.1462;;;;
2020/10/21 15:47:50;;;;;;;2.8;1.4;;;;;;;19.6;46.40625;934.2039;;;;
2020/10/21 15:50:18;;;;;;;1.6;1.1;;;;;;;19.4;45.87207;934.1813;;;;
2020/10/21 15:52:43;;;;;;;4.7;1.4;;;;;;;19.14;47.11426;934.1633;;;;
2020/10/21 15:55:18;;;;;;;4;1;;;;;;;19.03;47.73145;934.2367;;;;
2020/10/21 15:57:43;;;;;;;5.6;1.1;;;;;;;18.99;48.05273;934.2247;;;;
2020/10/21 16:00:21;;;;;;;2.3;1.1;;;;;;;18.86;49.26074;934.2552;;;;
2020/10/21 16:02:46;;;;;;;4.4;1.4;;;;;;;18.74;50.7373;934.2469;;;;
2020/10/21 16:05:20;;;;;;;3;1;;;;;;;18.42;50.62988;934.3259;;;;
2020/10/21 16:07:46;;;;;;;2.5;1.4;;;;;;;18.19;51.78906;934.3624;;;;
2020/10/21 16:10:19;;;;;;;7;1.8;;;;;;;17.96;51.77344;934.3166;;;;
2020/10/21 16:12:45;;;;;;;1.4;1;;;;;;;17.75;52.51563;934.2963;;;;
2020/10/21 16:15:10;;;;;;;1.6;1.3;;;;;;;17.65;52.93262;934.3702;;;;
2020/10/21 16:17:35;;;;;;;1.6;1.1;;;;;;;17.61;52.41699;934.3562;;;;
2020/10/21 16:20:03;;;;;;;4.2;0.9;;;;;;;17.61;53.60059;934.3917;;;;
2020/10/21 16:22:28;;;;;;;5.6;1.4;;;;;;;17.65;54.52246;934.3524;;;;
2020/10/21 16:24:53;;;;;;;3.2;1.6;;;;;;;17.65;55.05566;934.3918;;;;
2020/10/21 16:27:19;;;;;;;3.6;1.8;;;;;;;17.44;56.23535;934.4441;;;;
2020/10/21 16:29:43;;;;;;;3.4;1.3;;;;;;;17.33;55.96777;934.4889;;;;
2020/10/21 16:32:10;;;;;;;2;1.3;;;;;;;16.89;56.9541;934.5389;;;;
2020/10/21 16:34:35;;;;;;;1.9;1.1;;;;;;;16.65;57.54883;934.4659;;;;
2020/10/21 16:37:00;;;;;;;3.3;1.5;;;;;;;16.47;57.37305;934.5407;;;;
2020/10/21 16:39:28;;;;;;;3.2;1.5;;;;;;;16.2;58.5293;934.5011;;;;
2020/10/21 16:41:53;;;;;;;1.6;1.3;;;;;;;16.3;58.92383;934.608;;;;
2020/10/21 16:44:18;;;;;;;5;1.9;;;;;;;16.24;59.42578;934.6236;;;;
2020/10/21 16:46:45;;;;;;;7;1.8;;;;;;;16.14;59.5166;934.6548;;;;
2020/10/21 16:49:10;;;;;;;2.7;1.2;;;;;;;16.14;59.60938;934.5985;;;;
2020/10/21 16:51:37;;;;;;;1.3;1.1;;;;;;;16.1;59.73047;934.5848;;;;
2020/10/21 16:54:02;;;;;;;4.5;1.7;;;;;;;15.98;60.74414;934.6267;;;;
2020/10/21 16:56:29;;;;;;;5.6;2.1;;;;;;;15.88;60.37109;934.7416;;;;
2020/10/21 16:58:54;;;;;;;2.5;1.8;;;;;;;15.7;59.20215;934.7628;;;;
2020/10/21 17:01:19;;;;;;;1.6;1.2;;;;;;;15.71;59.19141;934.777;;;;
2020/10/21 17:03:46;;;;;;;9.9;1.9;;;;;;;15.53;60.25293;934.7639;;;;
2020/10/21 17:06:11;;;;;;;3.6;1.9;;;;;;;15.3;60.42969;934.8031;;;;
2020/10/21 17:08:37;;;;;;;3.9;1.9;;;;;;;15.15;60.43164;934.789;;;;
2020/10/21 17:11:02;;;;;;;11.9;1.9;;;;;;;15.12;60.17383;934.7766;;;;
2020/10/21 17:13:27;;;;;;;3.9;2.2;;;;;;;15.19;61.06152;934.7556;;;;
2020/10/21 17:15:54;;;;;;;4.8;2.7;;;;;;;15.2;60.42676;934.6848;;;;
2020/10/21 17:18:20;;;;;;;4.7;2.6;;;;;;;15.08;60.25977;934.6697;;;;
2020/10/21 17:20:53;;;;;;;2.8;2;;;;;;;14.86;61.33691;934.8038;;;;
2020/10/21 17:23:19;;;;;;;4.8;2.5;;;;;;;14.63;62.56055;934.7775;;;;
2020/10/21 17:25:44;;;;;;;5.8;3;;;;;;;14.59;62.69336;934.8281;;;;
2020/10/21 17:28:09;;;;;;;3.7;1.9;;;;;;;14.56;61.41113;934.8141;;;;
2020/10/21 17:30:36;;;;;;;6.9;2.2;;;;;;;14.62;61.9502;934.7831;;;;
2020/10/21 17:33:02;;;;;;;5.1;2.3;;;;;;;14.39;62.19336;934.9322;;;;
2020/10/21 17:35:27;;;;;;;9.2;3.5;;;;;;;14.36;62.17578;935.0223;;;;
2020/10/21 17:37:52;;;;;;;9.5;4;;;;;;;14.26;63.03906;935.0433;;;;
2020/10/21 17:40:17;;;;;;;17.3;4.1;;;;;;;14.25;63.49805;935.1042;;;;
2020/10/21 17:42:42;;;;;;;7.8;4;;;;;;;14.13;64.2627;935.1019;;;;
2020/10/21 17:45:15;;;;;;;11.3;4.8;;;;;;;14.01;65.0166;935.057;;;;
2020/10/21 17:47:43;;;;;;;8.5;2.7;;;;;;;14.05;64.86035;935.0298;;;;
2020/10/21 17:50:08;;;;;;;12.6;4.4;;;;;;;14.02;64.78711;935.0957;;;;